sensor_id;sensor_type;location;lat;lon;timestamp;pressure;altitude;pressure_sealevel;temperature;humidity
788;BME280;16074;42.708;23.312;2023-11-21T00:00:48;139719.44;;;5.84;100.00
788;BME280;16074;42.708;23.312;2023-11-21T00:03:16;139733.81;;;5.89;100.00
788;BME280;16074;42.708;23.312;2023-11-21T00:05:46;139724.22;;;5.86;100.00
788;BME280;16074;42.708;23.312;2023-11-21T00:08:15;139730.25;;;5.88;100.00
788;BME280;16074;42.708;23.312;2023-11-21T00:10:43;139739.84;;;5.92;100.00
788;BME280;16074;42.708;23.312;2023-11-21T00:13:12;139717.03;;;5.83;100.00
788;BME280;16074;42.708;23.312;2023-11-21T00:15:41;139696.63;;;5.74;100.00
788;BME280;16074;42.708;23.312;2023-11-21T00:18:09;139690.59;;;5.72;100.00
788;BME280;16074;42.708;23.312;2023-11-21T00:20:37;139688.22;;;5.71;100.00
788;BME280;16074;42.708;23.312;2023-11-21T00:23:06;139705.03;;;5.78;100.00
788;BME280;16074;42.708;23.312;2023-11-21T00:25:34;139697.81;;;5.75;100.00
788;BME280;16074;42.708;23.312;2023-11-21T00:28:03;139693.00;;;5.73;100.00
788;BME280;16074;42.708;23.312;2023-11-21T00:30:36;139711.06;;;5.80;100.00
788;BME280;16074;42.708;23.312;2023-11-21T00:33:04;139719.44;;;5.84;100.00
788;BME280;16074;42.708;23.312;2023-11-21T00:35:33;139708.66;;;5.79;100.00
788;BME280;16074;42.708;23.312;2023-11-21T00:38:01;139691.81;;;5.72;100.00
788;BME280;16074;42.708;23.312;2023-11-21T00:40:32;139717.03;;;5.83;100.00
788;BME280;16074;42.708;23.312;2023-11-21T00:43:00;139721.81;;;5.85;100.00
788;BME280;16074;42.708;23.312;2023-11-21T00:45:32;139723.06;;;5.85;100.00
788;BME280;16074;42.708;23.312;2023-11-21T00:48:01;139729.03;;;5.88;100.00
788;BME280;16074;42.708;23.312;2023-11-21T00:50:32;139718.25;;;5.83;100.00
788;BME280;16074;42.708;23.312;2023-11-21T00:53:00;139673.88;;;5.65;100.00
788;BME280;16074;42.708;23.312;2023-11-21T00:55:28;139685.81;;;5.70;100.00
788;BME280;16074;42.708;23.312;2023-11-21T00:57:57;139684.63;;;5.69;100.00
788;BME280;16074;42.708;23.312;2023-11-21T01:00:26;139684.63;;;5.69;100.00
788;BME280;16074;42.708;23.312;2023-11-21T01:02:55;139670.25;;;5.63;100.00
788;BME280;16074;42.708;23.312;2023-11-21T01:05:25;139655.88;;;5.57;100.00
788;BME280;16074;42.708;23.312;2023-11-21T01:07:53;139649.91;;;5.55;100.00
788;BME280;16074;42.708;23.312;2023-11-21T01:10:21;139634.28;;;5.48;100.00
788;BME280;16074;42.708;23.312;2023-11-21T01:12:50;139633.13;;;5.48;100.00
788;BME280;16074;42.708;23.312;2023-11-21T01:15:19;139642.72;;;5.52;100.00
788;BME280;16074;42.708;23.312;2023-11-21T01:17:48;139629.50;;;5.46;100.00
788;BME280;16074;42.708;23.312;2023-11-21T01:20:17;139619.91;;;5.42;100.00
788;BME280;16074;42.708;23.312;2023-11-21T01:22:48;139627.09;;;5.45;100.00
788;BME280;16074;42.708;23.312;2023-11-21T01:25:16;139588.78;;;5.29;100.00
788;BME280;16074;42.708;23.312;2023-11-21T01:27:45;139598.38;;;5.33;100.00
788;BME280;16074;42.708;23.312;2023-11-21T01:30:13;139588.78;;;5.29;100.00
788;BME280;16074;42.708;23.312;2023-11-21T01:32:43;139593.59;;;5.31;100.00
788;BME280;16074;42.708;23.312;2023-11-21T01:35:11;139594.75;;;5.32;100.00
788;BME280;16074;42.708;23.312;2023-11-21T01:37:40;139585.19;;;5.28;100.00
788;BME280;16074;42.708;23.312;2023-11-21T01:40:10;139574.41;;;5.23;100.00
788;BME280;16074;42.708;23.312;2023-11-21T01:42:42;139537.28;;;5.08;100.00
788;BME280;16074;42.708;23.312;2023-11-21T01:45:11;139550.44;;;5.13;100.00
788;BME280;16074;42.708;23.312;2023-11-21T01:47:41;139558.81;;;5.17;100.00
788;BME280;16074;42.708;23.312;2023-11-21T01:50:14;139527.72;;;5.04;100.00
788;BME280;16074;42.708;23.312;2023-11-21T01:52:44;139522.91;;;5.02;100.00
788;BME280;16074;42.708;23.312;2023-11-21T01:55:16;139532.50;;;5.06;100.00
788;BME280;16074;42.708;23.312;2023-11-21T01:57:55;139525.31;;;5.03;100.00
788;BME280;16074;42.708;23.312;2023-11-21T02:00:24;139527.72;;;5.04;100.00
788;BME280;16074;42.708;23.312;2023-11-21T02:02:56;139531.28;;;5.05;100.00
788;BME280;16074;42.708;23.312;2023-11-21T02:05:26;139526.50;;;5.03;100.00
788;BME280;16074;42.708;23.312;2023-11-21T02:07:58;139514.50;;;4.98;100.00
788;BME280;16074;42.708;23.312;2023-11-21T02:10:30;139490.56;;;4.88;100.00
788;BME280;16074;42.708;23.312;2023-11-21T02:12:58;139476.19;;;4.82;100.00
788;BME280;16074;42.708;23.312;2023-11-21T02:15:29;139488.16;;;4.87;100.00
788;BME280;16074;42.708;23.312;2023-11-21T02:17:58;139488.16;;;4.87;100.00
788;BME280;16074;42.708;23.312;2023-11-21T02:20:28;139464.25;;;4.77;100.00
788;BME280;16074;42.708;23.312;2023-11-21T02:22:58;139451.03;;;4.72;100.00
788;BME280;16074;42.708;23.312;2023-11-21T02:25:29;139443.88;;;4.69;100.00
788;BME280;16074;42.708;23.312;2023-11-21T02:27:58;139435.50;;;4.66;100.00
788;BME280;16074;42.708;23.312;2023-11-21T02:30:27;139440.28;;;4.68;100.00
788;BME280;16074;42.708;23.312;2023-11-21T02:32:55;139410.31;;;4.55;100.00
788;BME280;16074;42.708;23.312;2023-11-21T02:35:25;139415.13;;;4.57;100.00
788;BME280;16074;42.708;23.312;2023-11-21T02:37:54;139431.88;;;4.64;100.00
788;BME280;16074;42.708;23.312;2023-11-21T02:40:25;139436.69;;;4.66;100.00
788;BME280;16074;42.708;23.312;2023-11-21T02:42:54;139425.91;;;4.62;100.00
788;BME280;16074;42.708;23.312;2023-11-21T02:45:26;139412.72;;;4.56;100.00
788;BME280;16074;42.708;23.312;2023-11-21T02:47:54;139410.31;;;4.55;100.00
788;BME280;16074;42.708;23.312;2023-11-21T02:50:24;139392.38;;;4.48;100.00
788;BME280;16074;42.708;23.312;2023-11-21T02:52:54;139390.00;;;4.47;100.00
788;BME280;16074;42.708;23.312;2023-11-21T02:55:26;139370.84;;;4.39;100.00
788;BME280;16074;42.708;23.312;2023-11-21T02:57:55;139344.50;;;4.28;100.00
788;BME280;16074;42.708;23.312;2023-11-21T03:00:24;139382.81;;;4.44;100.00
788;BME280;16074;42.708;23.312;2023-11-21T03:02:55;139378.03;;;4.42;100.00
788;BME280;16074;42.708;23.312;2023-11-21T03:05:25;139391.22;;;4.47;100.00
788;BME280;16074;42.708;23.312;2023-11-21T03:07:53;139407.94;;;4.54;100.00
788;BME280;16074;42.708;23.312;2023-11-21T03:10:22;139411.56;;;4.56;100.00
788;BME280;16074;42.708;23.312;2023-11-21T03:12:51;139412.72;;;4.56;100.00
788;BME280;16074;42.708;23.312;2023-11-21T03:15:20;139419.91;;;4.59;100.00
788;BME280;16074;42.708;23.312;2023-11-21T03:17:48;139415.13;;;4.57;100.00
788;BME280;16074;42.708;23.312;2023-11-21T03:20:17;139422.31;;;4.60;100.00
788;BME280;16074;42.708;23.312;2023-11-21T03:22:45;139429.50;;;4.63;100.00
788;BME280;16074;42.708;23.312;2023-11-21T03:25:14;139442.69;;;4.68;100.00
788;BME280;16074;42.708;23.312;2023-11-21T03:27:44;139417.50;;;4.58;100.00
788;BME280;16074;42.708;23.312;2023-11-21T03:30:14;139413.94;;;4.57;100.00
788;BME280;16074;42.708;23.312;2023-11-21T03:32:43;139424.69;;;4.61;100.00
788;BME280;16074;42.708;23.312;2023-11-21T03:35:14;139411.56;;;4.56;100.00
788;BME280;16074;42.708;23.312;2023-11-21T03:37:42;139431.88;;;4.64;100.00
788;BME280;16074;42.708;23.312;2023-11-21T03:40:11;139443.88;;;4.69;100.00
788;BME280;16074;42.708;23.312;2023-11-21T03:42:40;139440.28;;;4.68;100.00
788;BME280;16074;42.708;23.312;2023-11-21T03:45:09;139454.66;;;4.73;100.00
788;BME280;16074;42.708;23.312;2023-11-21T03:47:41;139454.66;;;4.73;100.00
788;BME280;16074;42.708;23.312;2023-11-21T03:50:10;139421.13;;;4.60;100.00
788;BME280;16074;42.708;23.312;2023-11-21T03:52:38;139386.44;;;4.45;100.00
788;BME280;16074;42.708;23.312;2023-11-21T03:55:07;139376.84;;;4.41;100.00
788;BME280;16074;42.708;23.312;2023-11-21T03:57:40;139345.72;;;4.28;100.00
788;BME280;16074;42.708;23.312;2023-11-21T04:00:09;139369.66;;;4.38;100.00
788;BME280;16074;42.708;23.312;2023-11-21T04:02:38;139388.81;;;4.46;100.00
788;BME280;16074;42.708;23.312;2023-11-21T04:05:08;139403.19;;;4.52;100.00
788;BME280;16074;42.708;23.312;2023-11-21T04:07:37;139393.63;;;4.48;100.00
788;BME280;16074;42.708;23.312;2023-11-21T04:10:07;139388.81;;;4.46;100.00
788;BME280;16074;42.708;23.312;2023-11-21T04:12:36;139368.44;;;4.38;100.00
788;BME280;16074;42.708;23.312;2023-11-21T04:15:05;139363.66;;;4.36;100.00
788;BME280;16074;42.708;23.312;2023-11-21T04:17:35;139381.63;;;4.43;100.00
788;BME280;16074;42.708;23.312;2023-11-21T04:20:05;139369.66;;;4.38;100.00
788;BME280;16074;42.708;23.312;2023-11-21T04:22:38;139381.63;;;4.43;100.00
788;BME280;16074;42.708;23.312;2023-11-21T04:25:09;139384.03;;;4.44;100.00
788;BME280;16074;42.708;23.312;2023-11-21T04:27:39;139392.38;;;4.48;100.00
788;BME280;16074;42.708;23.312;2023-11-21T04:30:11;139393.63;;;4.48;100.00
788;BME280;16074;42.708;23.312;2023-11-21T04:32:40;139387.59;;;4.46;100.00
788;BME280;16074;42.708;23.312;2023-11-21T04:35:09;139385.22;;;4.45;100.00
788;BME280;16074;42.708;23.312;2023-11-21T04:37:38;139379.25;;;4.42;100.00
788;BME280;16074;42.708;23.312;2023-11-21T04:40:08;139390.00;;;4.47;100.00
788;BME280;16074;42.708;23.312;2023-11-21T04:42:36;139390.00;;;4.47;100.00
788;BME280;16074;42.708;23.312;2023-11-21T04:45:06;139387.59;;;4.46;100.00
788;BME280;16074;42.708;23.312;2023-11-21T04:47:38;139379.25;;;4.42;100.00
788;BME280;16074;42.708;23.312;2023-11-21T04:50:07;139369.66;;;4.38;100.00
788;BME280;16074;42.708;23.312;2023-11-21T04:52:35;139379.25;;;4.42;100.00
788;BME280;16074;42.708;23.312;2023-11-21T04:55:06;139364.88;;;4.36;100.00
788;BME280;16074;42.708;23.312;2023-11-21T04:57:37;139366.06;;;4.37;100.00
788;BME280;16074;42.708;23.312;2023-11-21T05:00:06;139367.28;;;4.37;100.00
788;BME280;16074;42.708;23.312;2023-11-21T05:02:35;139366.06;;;4.37;100.00
788;BME280;16074;42.708;23.312;2023-11-21T05:05:06;139351.69;;;4.31;100.00
788;BME280;16074;42.708;23.312;2023-11-21T05:07:35;139362.47;;;4.35;100.00
788;BME280;16074;42.708;23.312;2023-11-21T05:10:07;139364.88;;;4.36;100.00
788;BME280;16074;42.708;23.312;2023-11-21T05:12:40;139372.06;;;4.39;100.00
788;BME280;16074;42.708;23.312;2023-11-21T05:15:09;139378.03;;;4.42;100.00
788;BME280;16074;42.708;23.312;2023-11-21T05:17:38;139374.47;;;4.40;100.00
788;BME280;16074;42.708;23.312;2023-11-21T05:20:10;139400.78;;;4.51;100.00
788;BME280;16074;42.708;23.312;2023-11-21T05:22:39;139404.38;;;4.53;100.00
788;BME280;16074;42.708;23.312;2023-11-21T05:25:10;139405.59;;;4.53;100.00
788;BME280;16074;42.708;23.312;2023-11-21T05:27:39;139401.97;;;4.52;100.00
788;BME280;16074;42.708;23.312;2023-11-21T05:30:08;139405.59;;;4.53;100.00
788;BME280;16074;42.708;23.312;2023-11-21T05:32:40;139424.69;;;4.61;100.00
788;BME280;16074;42.708;23.312;2023-11-21T05:35:10;139423.53;;;4.61;100.00
788;BME280;16074;42.708;23.312;2023-11-21T05:37:44;139384.03;;;4.44;100.00
788;BME280;16074;42.708;23.312;2023-11-21T05:40:15;139416.34;;;4.58;100.00
788;BME280;16074;42.708;23.312;2023-11-21T05:42:44;139428.31;;;4.63;100.00
788;BME280;16074;42.708;23.312;2023-11-21T05:45:12;139428.31;;;4.63;100.00
788;BME280;16074;42.708;23.312;2023-11-21T05:47:41;139416.34;;;4.58;100.00
788;BME280;16074;42.708;23.312;2023-11-21T05:50:11;139431.88;;;4.64;100.00
788;BME280;16074;42.708;23.312;2023-11-21T05:52:42;139449.88;;;4.71;100.00
788;BME280;16074;42.708;23.312;2023-11-21T05:55:11;139421.13;;;4.60;100.00
788;BME280;16074;42.708;23.312;2023-11-21T05:57:43;139429.50;;;4.63;100.00
788;BME280;16074;42.708;23.312;2023-11-21T06:00:13;139437.91;;;4.67;100.00
788;BME280;16074;42.708;23.312;2023-11-21T06:02:46;139443.88;;;4.69;100.00
788;BME280;16074;42.708;23.312;2023-11-21T06:05:17;139421.13;;;4.60;100.00
788;BME280;16074;42.708;23.312;2023-11-21T06:07:46;139419.91;;;4.59;100.00
788;BME280;16074;42.708;23.312;2023-11-21T06:10:15;139417.50;;;4.58;100.00
788;BME280;16074;42.708;23.312;2023-11-21T06:12:46;139392.38;;;4.48;100.00
788;BME280;16074;42.708;23.312;2023-11-21T06:15:15;139417.50;;;4.58;100.00
788;BME280;16074;42.708;23.312;2023-11-21T06:17:46;139364.88;;;4.36;100.00
788;BME280;16074;42.708;23.312;2023-11-21T06:20:19;139388.81;;;4.46;100.00
788;BME280;16074;42.708;23.312;2023-11-21T06:22:49;139415.13;;;4.57;100.00
788;BME280;16074;42.708;23.312;2023-11-21T06:25:18;139386.44;;;4.45;100.00
788;BME280;16074;42.708;23.312;2023-11-21T06:27:48;139435.50;;;4.66;100.00
788;BME280;16074;42.708;23.312;2023-11-21T06:30:17;139442.69;;;4.68;100.00
788;BME280;16074;42.708;23.312;2023-11-21T06:32:46;139455.84;;;4.74;100.00
788;BME280;16074;42.708;23.312;2023-11-21T06:35:15;139482.19;;;4.85;100.00
788;BME280;16074;42.708;23.312;2023-11-21T06:37:44;139508.53;;;4.96;100.00
788;BME280;16074;42.708;23.312;2023-11-21T06:40:17;139550.44;;;5.13;100.00
788;BME280;16074;42.708;23.312;2023-11-21T06:42:46;139573.19;;;5.23;100.00
788;BME280;16074;42.708;23.312;2023-11-21T06:45:16;139594.75;;;5.32;100.00
788;BME280;16074;42.708;23.312;2023-11-21T06:47:45;139627.09;;;5.45;100.00
788;BME280;16074;42.708;23.312;2023-11-21T06:50:13;139678.63;;;5.67;100.00
788;BME280;16074;42.708;23.312;2023-11-21T06:52:42;139675.03;;;5.65;100.00
788;BME280;16074;42.708;23.312;2023-11-21T06:55:11;139737.44;;;5.91;100.00
788;BME280;16074;42.708;23.312;2023-11-21T06:57:40;139767.38;;;6.03;100.00
788;BME280;16074;42.708;23.312;2023-11-21T07:00:09;139806.94;;;6.20;100.00
788;BME280;16074;42.708;23.312;2023-11-21T07:02:39;139835.72;;;6.32;100.00
788;BME280;16074;42.708;23.312;2023-11-21T07:05:08;139853.69;;;6.39;100.00
788;BME280;16074;42.708;23.312;2023-11-21T07:07:36;139868.09;;;6.45;100.00
788;BME280;16074;42.708;23.312;2023-11-21T07:10:05;139905.28;;;6.61;100.00
788;BME280;16074;42.708;23.312;2023-11-21T07:12:34;139911.28;;;6.63;100.00
788;BME280;16074;42.708;23.312;2023-11-21T07:15:03;139988.06;;;6.95;100.00
788;BME280;16074;42.708;23.312;2023-11-21T07:17:32;140031.28;;;7.13;100.00
788;BME280;16074;42.708;23.312;2023-11-21T07:20:08;140076.91;;;7.32;100.00
788;BME280;16074;42.708;23.312;2023-11-21T07:22:38;140091.25;;;7.38;100.00
788;BME280;16074;42.708;23.312;2023-11-21T07:25:07;140142.91;;;7.59;100.00
788;BME280;16074;42.708;23.312;2023-11-21T07:27:37;140168.13;;;7.70;100.00
788;BME280;16074;42.708;23.312;2023-11-21T07:30:06;140195.72;;;7.81;100.00
788;BME280;16074;42.708;23.312;2023-11-21T07:32:37;140223.38;;;7.93;100.00
788;BME280;16074;42.708;23.312;2023-11-21T07:35:08;140234.16;;;7.97;100.00
788;BME280;16074;42.708;23.312;2023-11-21T07:37:37;140246.19;;;8.02;100.00
788;BME280;16074;42.708;23.312;2023-11-21T07:40:07;140264.19;;;8.10;100.00
788;BME280;16074;42.708;23.312;2023-11-21T07:42:36;140284.69;;;8.18;100.00
788;BME280;16074;42.708;23.312;2023-11-21T07:45:06;140314.72;;;8.30;100.00
788;BME280;16074;42.708;23.312;2023-11-21T07:47:35;140311.06;;;8.29;100.00
788;BME280;16074;42.708;23.312;2023-11-21T07:50:04;140315.88;;;8.31;100.00
788;BME280;16074;42.708;23.312;2023-11-21T07:52:36;140350.78;;;8.45;100.00
788;BME280;16074;42.708;23.312;2023-11-21T07:55:05;140415.63;;;8.72;100.00
788;BME280;16074;42.708;23.312;2023-11-21T07:57:34;140365.16;;;8.51;100.00
788;BME280;16074;42.708;23.312;2023-11-21T08:00:04;140390.41;;;8.62;100.00
788;BME280;16074;42.708;23.312;2023-11-21T08:02:38;140407.25;;;8.69;100.00
788;BME280;16074;42.708;23.312;2023-11-21T08:05:10;140442.09;;;8.83;100.00
788;BME280;16074;42.708;23.312;2023-11-21T08:07:52;140454.13;;;8.88;100.00
788;BME280;16074;42.708;23.312;2023-11-21T08:10:20;140468.53;;;8.94;100.00
788;BME280;16074;42.708;23.312;2023-11-21T08:12:49;140504.59;;;9.09;100.00
788;BME280;16074;42.708;23.312;2023-11-21T08:15:18;140517.84;;;9.15;100.00
788;BME280;16074;42.708;23.312;2023-11-21T08:17:47;140490.19;;;9.03;100.00
788;BME280;16074;42.708;23.312;2023-11-21T08:20:15;140545.47;;;9.26;100.00
788;BME280;16074;42.708;23.312;2023-11-21T08:22:45;140596.00;;;9.47;100.00
788;BME280;16074;42.708;23.312;2023-11-21T08:25:16;140596.00;;;9.47;100.00
788;BME280;16074;42.708;23.312;2023-11-21T08:27:47;140669.41;;;9.77;100.00
788;BME280;16074;42.708;23.312;2023-11-21T08:30:15;140689.84;;;9.86;100.00
788;BME280;16074;42.708;23.312;2023-11-21T08:32:46;140722.31;;;9.99;100.00
788;BME280;16074;42.708;23.312;2023-11-21T08:35:15;140705.47;;;9.92;100.00
788;BME280;16074;42.708;23.312;2023-11-21T08:37:43;140778.94;;;10.23;100.00
788;BME280;16074;42.708;23.312;2023-11-21T08:40:12;140774.09;;;10.21;99.18
788;BME280;16074;42.708;23.312;2023-11-21T08:42:45;140724.78;;;10.00;100.00
788;BME280;16074;42.708;23.312;2023-11-21T08:45:15;140783.75;;;10.25;99.68
788;BME280;16074;42.708;23.312;2023-11-21T08:47:44;140806.66;;;10.34;99.15
788;BME280;16074;42.708;23.312;2023-11-21T08:50:13;140782.56;;;10.24;98.57
788;BME280;16074;42.708;23.312;2023-11-21T08:52:43;140833.13;;;10.45;98.83
788;BME280;16074;42.708;23.312;2023-11-21T08:55:13;140883.69;;;10.66;94.53
788;BME280;16074;42.708;23.312;2023-11-21T08:57:44;140878.88;;;10.64;93.66
788;BME280;16074;42.708;23.312;2023-11-21T09:00:15;140898.13;;;10.72;93.46
788;BME280;16074;42.708;23.312;2023-11-21T09:02:44;140951.16;;;10.94;92.45
788;BME280;16074;42.708;23.312;2023-11-21T09:05:14;140952.34;;;10.94;90.30
788;BME280;16074;42.708;23.312;2023-11-21T09:07:43;141002.94;;;11.15;89.39
788;BME280;16074;42.708;23.312;2023-11-21T09:10:13;141021.00;;;11.23;89.33
788;BME280;16074;42.708;23.312;2023-11-21T09:12:41;141037.88;;;11.30;88.18
788;BME280;16074;42.708;23.312;2023-11-21T09:15:10;141033.03;;;11.28;87.49
788;BME280;16074;42.708;23.312;2023-11-21T09:17:40;141031.88;;;11.27;86.43
788;BME280;16074;42.708;23.312;2023-11-21T09:20:10;141030.63;;;11.27;87.79
788;BME280;16074;42.708;23.312;2023-11-21T09:22:39;141031.88;;;11.27;88.00
788;BME280;16074;42.708;23.312;2023-11-21T09:25:08;141057.16;;;11.38;86.93
788;BME280;16074;42.708;23.312;2023-11-21T09:27:36;141075.22;;;11.45;86.18
788;BME280;16074;42.708;23.312;2023-11-21T09:30:06;141059.56;;;11.39;86.88
788;BME280;16074;42.708;23.312;2023-11-21T09:32:37;141070.41;;;11.43;86.46
788;BME280;16074;42.708;23.312;2023-11-21T09:35:09;141036.69;;;11.29;86.73
788;BME280;16074;42.708;23.312;2023-11-21T09:37:38;141030.63;;;11.27;87.44
788;BME280;16074;42.708;23.312;2023-11-21T09:40:10;141005.34;;;11.16;88.54
788;BME280;16074;42.708;23.312;2023-11-21T09:42:43;141018.59;;;11.22;87.43
788;BME280;16074;42.708;23.312;2023-11-21T09:45:21;141007.75;;;11.17;89.03
788;BME280;16074;42.708;23.312;2023-11-21T09:47:53;141034.28;;;11.28;87.04
788;BME280;16074;42.708;23.312;2023-11-21T09:50:24;141059.56;;;11.39;86.60
788;BME280;16074;42.708;23.312;2023-11-21T09:53:09;141039.09;;;11.30;84.96
788;BME280;16074;42.708;23.312;2023-11-21T09:55:43;141060.75;;;11.39;84.60
788;BME280;16074;42.708;23.312;2023-11-21T09:58:13;141075.22;;;11.45;84.86
788;BME280;16074;42.708;23.312;2023-11-21T10:00:42;141111.44;;;11.60;84.81
788;BME280;16074;42.708;23.312;2023-11-21T10:03:11;141172.91;;;11.86;83.87
788;BME280;16074;42.708;23.312;2023-11-21T10:05:42;141142.78;;;11.73;81.49
788;BME280;16074;42.708;23.312;2023-11-21T10:08:11;141121.06;;;11.64;82.15
788;BME280;16074;42.708;23.312;2023-11-21T10:10:43;141063.16;;;11.40;83.59
788;BME280;16074;42.708;23.312;2023-11-21T10:13:12;141083.69;;;11.49;85.04
788;BME280;16074;42.708;23.312;2023-11-21T10:15:44;141165.66;;;11.83;83.11
788;BME280;16074;42.708;23.312;2023-11-21T10:18:16;141229.56;;;12.09;84.26
788;BME280;16074;42.708;23.312;2023-11-21T10:20:46;141244.03;;;12.15;78.25
788;BME280;16074;42.708;23.312;2023-11-21T10:23:20;141195.78;;;11.95;79.74
788;BME280;16074;42.708;23.312;2023-11-21T10:25:52;141234.38;;;12.11;79.15
788;BME280;16074;42.708;23.312;2023-11-21T10:28:24;141285.06;;;12.32;78.67
788;BME280;16074;42.708;23.312;2023-11-21T10:30:52;141323.63;;;12.48;77.56
788;BME280;16074;42.708;23.312;2023-11-21T10:33:27;141379.13;;;12.71;76.78
788;BME280;16074;42.708;23.312;2023-11-21T10:35:57;141431.06;;;12.92;74.49
788;BME280;16074;42.708;23.312;2023-11-21T10:38:28;141466.03;;;13.07;72.03
788;BME280;16074;42.708;23.312;2023-11-21T10:40:57;141497.44;;;13.19;70.69
788;BME280;16074;42.708;23.312;2023-11-21T10:43:26;141532.44;;;13.34;71.30
788;BME280;16074;42.708;23.312;2023-11-21T10:45:58;141538.50;;;13.36;69.78
788;BME280;16074;42.708;23.312;2023-11-21T10:48:27;141565.06;;;13.47;68.33
788;BME280;16074;42.708;23.312;2023-11-21T10:50:55;141577.13;;;13.52;67.30
788;BME280;16074;42.708;23.312;2023-11-21T10:53:28;141563.81;;;13.47;65.17
788;BME280;16074;42.708;23.312;2023-11-21T10:56:02;141596.41;;;13.60;65.00
788;BME280;16074;42.708;23.312;2023-11-21T10:58:34;141597.66;;;13.61;64.41
788;BME280;16074;42.708;23.312;2023-11-21T11:01:06;141577.13;;;13.52;64.67
788;BME280;16074;42.708;23.312;2023-11-21T11:03:35;141577.13;;;13.52;64.61
788;BME280;16074;42.708;23.312;2023-11-21T11:06:05;141579.56;;;13.53;64.15
788;BME280;16074;42.708;23.312;2023-11-21T11:08:40;141566.25;;;13.48;64.54
788;BME280;16074;42.708;23.312;2023-11-21T11:11:09;141555.41;;;13.43;65.63
788;BME280;16074;42.708;23.312;2023-11-21T11:13:43;141556.59;;;13.44;65.25
788;BME280;16074;42.708;23.312;2023-11-21T11:16:13;141550.56;;;13.41;65.84
788;BME280;16074;42.708;23.312;2023-11-21T11:18:44;141533.66;;;13.34;66.00
788;BME280;16074;42.708;23.312;2023-11-21T11:21:25;141521.59;;;13.29;65.13
788;BME280;16074;42.708;23.312;2023-11-21T11:24:10;141505.91;;;13.23;65.81
788;BME280;16074;42.708;23.312;2023-11-21T11:26:47;141497.44;;;13.19;65.69
788;BME280;16074;42.708;23.312;2023-11-21T11:29:24;141429.88;;;12.92;68.40
788;BME280;16074;42.708;23.312;2023-11-21T11:32:03;141449.19;;;13.00;67.94
788;BME280;16074;42.708;23.312;2023-11-21T11:34:41;141463.63;;;13.06;67.89
788;BME280;16074;42.708;23.312;2023-11-21T11:37:12;141426.19;;;12.90;67.53
788;BME280;16074;42.708;23.312;2023-11-21T11:39:42;141417.75;;;12.87;68.31
788;BME280;16074;42.708;23.312;2023-11-21T11:42:13;141403.28;;;12.81;68.56
788;BME280;16074;42.708;23.312;2023-11-21T11:44:52;141396.03;;;12.78;70.23
788;BME280;16074;42.708;23.312;2023-11-21T11:47:24;141388.78;;;12.75;73.97
788;BME280;16074;42.708;23.312;2023-11-21T11:50:01;141352.56;;;12.60;82.52
788;BME280;16074;42.708;23.312;2023-11-21T11:52:38;141306.78;;;12.41;87.40
788;BME280;16074;42.708;23.312;2023-11-21T11:55:10;141288.66;;;12.33;85.27
788;BME280;16074;42.708;23.312;2023-11-21T11:57:41;141242.84;;;12.14;90.41
788;BME280;16074;42.708;23.312;2023-11-21T12:00:14;141176.53;;;11.87;93.43
788;BME280;16074;42.708;23.312;2023-11-21T12:02:53;141127.06;;;11.67;99.87
788;BME280;16074;42.708;23.312;2023-11-21T12:05:24;141099.38;;;11.55;100.00
788;BME280;16074;42.708;23.312;2023-11-21T12:07:55;141059.56;;;11.39;100.00
788;BME280;16074;42.708;23.312;2023-11-21T12:10:26;141019.81;;;11.22;100.00
788;BME280;16074;42.708;23.312;2023-11-21T12:12:56;141021.00;;;11.23;100.00
788;BME280;16074;42.708;23.312;2023-11-21T12:15:25;140972.84;;;11.03;100.00
788;BME280;16074;42.708;23.312;2023-11-21T12:17:56;140896.94;;;10.71;100.00
788;BME280;16074;42.708;23.312;2023-11-21T12:20:25;140878.88;;;10.64;100.00
788;BME280;16074;42.708;23.312;2023-11-21T12:22:55;140876.44;;;10.63;100.00
788;BME280;16074;42.708;23.312;2023-11-21T12:25:29;140816.28;;;10.38;100.00
788;BME280;16074;42.708;23.312;2023-11-21T12:27:59;140745.25;;;10.09;100.00
788;BME280;16074;42.708;23.312;2023-11-21T12:30:30;140780.16;;;10.23;100.00
788;BME280;16074;42.708;23.312;2023-11-21T12:32:59;140760.88;;;10.15;100.00
788;BME280;16074;42.708;23.312;2023-11-21T12:35:33;140766.94;;;10.18;100.00
788;BME280;16074;42.708;23.312;2023-11-21T12:38:03;140744.03;;;10.08;100.00
788;BME280;16074;42.708;23.312;2023-11-21T12:40:33;140732.00;;;10.03;100.00
788;BME280;16074;42.708;23.312;2023-11-21T12:43:02;140740.44;;;10.07;100.00
788;BME280;16074;42.708;23.312;2023-11-21T12:45:31;140746.44;;;10.09;100.00
788;BME280;16074;42.708;23.312;2023-11-21T12:48:01;140685.03;;;9.84;100.00
788;BME280;16074;42.708;23.312;2023-11-21T12:50:35;140670.56;;;9.78;100.00
788;BME280;16074;42.708;23.312;2023-11-21T12:53:06;140654.97;;;9.71;100.00
788;BME280;16074;42.708;23.312;2023-11-21T12:55:39;140592.38;;;9.45;100.00
788;BME280;16074;42.708;23.312;2023-11-21T12:58:09;140633.28;;;9.62;100.00
788;BME280;16074;42.708;23.312;2023-11-21T13:00:42;140658.53;;;9.73;100.00
788;BME280;16074;42.708;23.312;2023-11-21T13:03:11;140681.44;;;9.82;100.00
788;BME280;16074;42.708;23.312;2023-11-21T13:05:46;140697.06;;;9.89;100.00
788;BME280;16074;42.708;23.312;2023-11-21T13:08:20;140664.59;;;9.75;100.00
788;BME280;16074;42.708;23.312;2023-11-21T13:10:53;140675.41;;;9.80;100.00
788;BME280;16074;42.708;23.312;2023-11-21T13:13:24;140675.41;;;9.80;100.00
788;BME280;16074;42.708;23.312;2023-11-21T13:15:56;140663.34;;;9.75;100.00